sensor_id;sensor_type;location;lat;lon;timestamp;P1;durP1;ratioP1;P2;durP2;ratioP2
15500;SDS011;7852;52.228;5.990;2022-09-09T00:02:37;2.9;;;1.6;;
15500;SDS011;7852;52.228;5.990;2022-09-09T00:02:38;2.3;;;1.6;;
15500;SDS011;7852;52.228;5.990;2022-09-09T00:02:58;3.2;;;1.9;;
15500;SDS011;7852;52.228;5.990;2022-09-09T00:03:57;4.2;;;2.1;;
15500;SDS011;7852;52.228;5.990;2022-09-09T00:04:58;4.5;;;2;;
15500;SDS011;7852;52.228;5.990;2022-09-09T00:05:59;3.6;;;2.3;;
15500;SDS011;7852;52.228;5.990;2022-09-09T00:06:58;4.6;;;2.1;;
15500;SDS011;7852;52.228;5.990;2022-09-09T00:07:56;5.3;;;2.4;;
15500;SDS011;7852;52.228;5.990;2022-09-09T00:08:59;3.1;;;2.4;;
15500;SDS011;7852;52.228;5.990;2022-09-09T00:09:57;5.2;;;2.9;;
15500;SDS011;7852;52.228;5.990;2022-09-09T00:10:58;3.9;;;2.6;;
15500;SDS011;7852;52.228;5.990;2022-09-09T00:11:57;3.5;;;2.7;;
15500;SDS011;7852;52.228;5.990;2022-09-09T00:12:58;3.1;;;2.5;;
15500;SDS011;7852;52.228;5.990;2022-09-09T00:13:56;4.5;;;2.4;;
15500;SDS011;7852;52.228;5.990;2022-09-09T00:14:56;4.8;;;2.5;;
15500;SDS011;7852;52.228;5.990;2022-09-09T00:15:57;5.2;;;2.2;;
15500;SDS011;7852;52.228;5.990;2022-09-09T00:16:56;2.9;;;2.1;;
15500;SDS011;7852;52.228;5.990;2022-09-09T00:17:56;3.6;;;2.5;;
15500;SDS011;7852;52.228;5.990;2022-09-09T00:18:57;4.5;;;2.2;;
15500;SDS011;7852;52.228;5.990;2022-09-09T00:19:59;3.7;;;2;;
15500;SDS011;7852;52.228;5.990;2022-09-09T00:20:58;3.5;;;1.9;;
15500;SDS011;7852;52.228;5.990;2022-09-09T00:22:00;3;;;1.8;;
15500;SDS011;7852;52.228;5.990;2022-09-09T00:23:03;3.5;;;2;;
15500;SDS011;7852;52.228;5.990;2022-09-09T00:23:56;3.2;;;1.7;;
15500;SDS011;7852;52.228;5.990;2022-09-09T00:25:00;3.2;;;1.8;;
15500;SDS011;7852;52.228;5.990;2022-09-09T00:25:59;3.1;;;1.6;;
15500;SDS011;7852;52.228;5.990;2022-09-09T00:26:57;2.8;;;1.8;;
15500;SDS011;7852;52.228;5.990;2022-09-09T00:27:57;3.5;;;1.6;;
15500;SDS011;7852;52.228;5.990;2022-09-09T00:28:58;4.1;;;1.6;;
15500;SDS011;7852;52.228;5.990;2022-09-09T00:29:58;2;;;1.4;;
15500;SDS011;7852;52.228;5.990;2022-09-09T00:30:59;3.9;;;2;;
15500;SDS011;7852;52.228;5.990;2022-09-09T00:31:59;3.1;;;1.6;;
15500;SDS011;7852;52.228;5.990;2022-09-09T00:32:58;3.9;;;1.6;;
15500;SDS011;7852;52.228;5.990;2022-09-09T00:33:58;1.7;;;1.3;;
15500;SDS011;7852;52.228;5.990;2022-09-09T00:35:00;1.7;;;1.4;;
15500;SDS011;7852;52.228;5.990;2022-09-09T00:35:57;1.7;;;1.5;;
15500;SDS011;7852;52.228;5.990;2022-09-09T00:36:57;1.6;;;1.4;;
15500;SDS011;7852;52.228;5.990;2022-09-09T00:37:58;3.8;;;1.5;;
15500;SDS011;7852;52.228;5.990;2022-09-09T00:38:58;3.9;;;1.7;;
15500;SDS011;7852;52.228;5.990;2022-09-09T00:39:58;2.6;;;1.5;;
15500;SDS011;7852;52.228;5.990;2022-09-09T00:40:58;3.5;;;1.5;;
15500;SDS011;7852;52.228;5.990;2022-09-09T00:42:02;2.6;;;1.5;;
15500;SDS011;7852;52.228;5.990;2022-09-09T00:43:01;2.9;;;1.5;;
15500;SDS011;7852;52.228;5.990;2022-09-09T00:44:00;2.7;;;1.7;;
15500;SDS011;7852;52.228;5.990;2022-09-09T00:44:58;3.1;;;1.6;;
15500;SDS011;7852;52.228;5.990;2022-09-09T00:46:01;4.8;;;1.9;;
15500;SDS011;7852;52.228;5.990;2022-09-09T00:47:01;2.7;;;1.6;;
15500;SDS011;7852;52.228;5.990;2022-09-09T00:47:57;3.3;;;1.7;;
15500;SDS011;7852;52.228;5.990;2022-09-09T00:49:00;3.6;;;1.7;;
15500;SDS011;7852;52.228;5.990;2022-09-09T00:49:59;3.6;;;1.8;;
15500;SDS011;7852;52.228;5.990;2022-09-09T00:50:59;2.7;;;1.6;;
15500;SDS011;7852;52.228;5.990;2022-09-09T00:52:03;2.6;;;1.7;;
15500;SDS011;7852;52.228;5.990;2022-09-09T00:53:02;2.8;;;1.5;;
15500;SDS011;7852;52.228;5.990;2022-09-09T00:54:12;3.2;;;1.5;;
15500;SDS011;7852;52.228;5.990;2022-09-09T00:55:03;3.5;;;1.5;;
15500;SDS011;7852;52.228;5.990;2022-09-09T00:56:01;3.5;;;1.8;;
15500;SDS011;7852;52.228;5.990;2022-09-09T00:57:04;2.3;;;1.6;;
15500;SDS011;7852;52.228;5.990;2022-09-09T00:58:01;3.2;;;1.7;;
15500;SDS011;7852;52.228;5.990;2022-09-09T00:59:04;3.4;;;1.7;;
15500;SDS011;7852;52.228;5.990;2022-09-09T01:00:21;2.5;;;1.6;;
15500;SDS011;7852;52.228;5.990;2022-09-09T01:01:03;2.3;;;1.6;;
15500;SDS011;7852;52.228;5.990;2022-09-09T01:02:02;2.3;;;1.6;;
15500;SDS011;7852;52.228;5.990;2022-09-09T01:03:06;5.2;;;1.9;;
15500;SDS011;7852;52.228;5.990;2022-09-09T01:04:02;4.5;;;1.9;;
15500;SDS011;7852;52.228;5.990;2022-09-09T01:05:04;3.1;;;1.5;;
15500;SDS011;7852;52.228;5.990;2022-09-09T01:06:02;2.6;;;1.7;;
15500;SDS011;7852;52.228;5.990;2022-09-09T01:07:04;2.8;;;1.8;;
15500;SDS011;7852;52.228;5.990;2022-09-09T01:08:03;2.6;;;1.7;;
15500;SDS011;7852;52.228;5.990;2022-09-09T01:09:05;2.3;;;1.7;;
15500;SDS011;7852;52.228;5.990;2022-09-09T01:10:03;3.7;;;1.7;;
15500;SDS011;7852;52.228;5.990;2022-09-09T01:11:02;2.5;;;1.7;;
15500;SDS011;7852;52.228;5.990;2022-09-09T01:12:07;2.3;;;1.7;;
15500;SDS011;7852;52.228;5.990;2022-09-09T01:13:04;3;;;1.8;;
15500;SDS011;7852;52.228;5.990;2022-09-09T01:14:05;2.6;;;1.8;;
15500;SDS011;7852;52.228;5.990;2022-09-09T01:15:07;3.3;;;1.8;;
15500;SDS011;7852;52.228;5.990;2022-09-09T01:16:04;4.1;;;1.8;;
15500;SDS011;7852;52.228;5.990;2022-09-09T01:17:05;3.4;;;2;;
15500;SDS011;7852;52.228;5.990;2022-09-09T01:18:04;4.1;;;1.9;;
15500;SDS011;7852;52.228;5.990;2022-09-09T01:19:03;3.9;;;1.8;;
15500;SDS011;7852;52.228;5.990;2022-09-09T01:20:04;2.9;;;1.7;;
15500;SDS011;7852;52.228;5.990;2022-09-09T01:21:04;3.7;;;1.8;;
15500;SDS011;7852;52.228;5.990;2022-09-09T01:22:06;2.6;;;1.7;;
15500;SDS011;7852;52.228;5.990;2022-09-09T01:23:10;3.5;;;1.8;;
15500;SDS011;7852;52.228;5.990;2022-09-09T01:24:07;4.3;;;1.7;;
15500;SDS011;7852;52.228;5.990;2022-09-09T01:26:13;3.7;;;2.1;;
15500;SDS011;7852;52.228;5.990;2022-09-09T01:27:03;3.5;;;2;;
15500;SDS011;7852;52.228;5.990;2022-09-09T01:28:03;3.8;;;2.2;;
15500;SDS011;7852;52.228;5.990;2022-09-09T01:29:04;3.4;;;2.3;;
15500;SDS011;7852;52.228;5.990;2022-09-09T01:30:07;3.2;;;1.8;;
15500;SDS011;7852;52.228;5.990;2022-09-09T01:31:03;3.9;;;1.9;;
15500;SDS011;7852;52.228;5.990;2022-09-09T01:32:35;3.2;;;2.1;;
15500;SDS011;7852;52.228;5.990;2022-09-09T01:33:03;4.8;;;2.1;;
15500;SDS011;7852;52.228;5.990;2022-09-09T01:34:04;4.6;;;2.1;;
15500;SDS011;7852;52.228;5.990;2022-09-09T01:35:03;3.7;;;1.9;;
15500;SDS011;7852;52.228;5.990;2022-09-09T01:36:06;2.6;;;2.1;;
15500;SDS011;7852;52.228;5.990;2022-09-09T01:37:05;2.4;;;1.9;;
15500;SDS011;7852;52.228;5.990;2022-09-09T01:38:05;3.7;;;2;;
15500;SDS011;7852;52.228;5.990;2022-09-09T01:39:05;2.3;;;1.8;;
15500;SDS011;7852;52.228;5.990;2022-09-09T01:40:05;4.2;;;2.3;;
15500;SDS011;7852;52.228;5.990;2022-09-09T01:41:05;4.1;;;2.1;;
15500;SDS011;7852;52.228;5.990;2022-09-09T01:42:06;4.6;;;2.4;;
15500;SDS011;7852;52.228;5.990;2022-09-09T01:43:05;4.4;;;2.2;;
15500;SDS011;7852;52.228;5.990;2022-09-09T01:44:05;4.8;;;2.1;;
15500;SDS011;7852;52.228;5.990;2022-09-09T01:45:05;3.5;;;2;;
15500;SDS011;7852;52.228;5.990;2022-09-09T01:46:05;3.2;;;2;;
15500;SDS011;7852;52.228;5.990;2022-09-09T01:47:05;5;;;2.3;;
15500;SDS011;7852;52.228;5.990;2022-09-09T01:48:05;3.1;;;1.8;;
15500;SDS011;7852;52.228;5.990;2022-09-09T01:49:06;3.4;;;2.4;;
15500;SDS011;7852;52.228;5.990;2022-09-09T01:50:06;3.5;;;2.3;;
15500;SDS011;7852;52.228;5.990;2022-09-09T01:51:05;4;;;2.2;;
15500;SDS011;7852;52.228;5.990;2022-09-09T01:52:05;3.7;;;2.3;;
15500;SDS011;7852;52.228;5.990;2022-09-09T01:53:05;4.1;;;2.4;;
15500;SDS011;7852;52.228;5.990;2022-09-09T01:54:05;3.8;;;2.2;;
15500;SDS011;7852;52.228;5.990;2022-09-09T01:55:05;3.2;;;2;;
15500;SDS011;7852;52.228;5.990;2022-09-09T01:56:07;5.1;;;2.5;;
15500;SDS011;7852;52.228;5.990;2022-09-09T01:57:06;5.3;;;2.5;;
15500;SDS011;7852;52.228;5.990;2022-09-09T01:58:09;6.8;;;2.5;;
15500;SDS011;7852;52.228;5.990;2022-09-09T01:59:08;5.2;;;2.6;;
15500;SDS011;7852;52.228;5.990;2022-09-09T02:00:07;4.5;;;2.6;;
15500;SDS011;7852;52.228;5.990;2022-09-09T02:01:06;4.8;;;2.4;;
15500;SDS011;7852;52.228;5.990;2022-09-09T02:02:08;7.1;;;2.5;;
15500;SDS011;7852;52.228;5.990;2022-09-09T02:03:05;6.7;;;2.7;;
15500;SDS011;7852;52.228;5.990;2022-09-09T02:04:07;4.1;;;2.5;;
15500;SDS011;7852;52.228;5.990;2022-09-09T02:05:08;3.5;;;2.6;;
15500;SDS011;7852;52.228;5.990;2022-09-09T02:06:07;3.6;;;2.7;;
15500;SDS011;7852;52.228;5.990;2022-09-09T02:07:06;3.7;;;2.4;;
15500;SDS011;7852;52.228;5.990;2022-09-09T02:08:05;4.1;;;2.4;;
15500;SDS011;7852;52.228;5.990;2022-09-09T02:09:05;4.4;;;2.4;;
15500;SDS011;7852;52.228;5.990;2022-09-09T02:10:07;3.4;;;2.4;;
15500;SDS011;7852;52.228;5.990;2022-09-09T02:11:05;3.6;;;2.6;;
15500;SDS011;7852;52.228;5.990;2022-09-09T02:12:06;3.9;;;2.6;;
15500;SDS011;7852;52.228;5.990;2022-09-09T02:13:07;3.7;;;2.4;;
15500;SDS011;7852;52.228;5.990;2022-09-09T02:14:05;5.5;;;2.7;;
15500;SDS011;7852;52.228;5.990;2022-09-09T02:15:07;4.8;;;2.6;;
15500;SDS011;7852;52.228;5.990;2022-09-09T02:16:06;4;;;2.8;;
15500;SDS011;7852;52.228;5.990;2022-09-09T02:17:07;4;;;2.7;;
15500;SDS011;7852;52.228;5.990;2022-09-09T02:18:06;4.4;;;2.9;;
15500;SDS011;7852;52.228;5.990;2022-09-09T02:19:06;5.5;;;2.8;;
15500;SDS011;7852;52.228;5.990;2022-09-09T02:20:06;5.1;;;2.7;;
15500;SDS011;7852;52.228;5.990;2022-09-09T02:21:05;5.2;;;2.7;;
15500;SDS011;7852;52.228;5.990;2022-09-09T02:22:05;5.4;;;2.6;;
15500;SDS011;7852;52.228;5.990;2022-09-09T02:23:05;5.3;;;2.7;;
15500;SDS011;7852;52.228;5.990;2022-09-09T02:24:06;7.4;;;3.4;;
15500;SDS011;7852;52.228;5.990;2022-09-09T02:25:05;4.6;;;2.7;;
15500;SDS011;7852;52.228;5.990;2022-09-09T02:26:05;5.3;;;2.8;;
15500;SDS011;7852;52.228;5.990;2022-09-09T02:27:06;4.8;;;2.9;;
15500;SDS011;7852;52.228;5.990;2022-09-09T02:28:06;5.9;;;2.6;;
15500;SDS011;7852;52.228;5.990;2022-09-09T02:30:05;5;;;2.8;;
15500;SDS011;7852;52.228;5.990;2022-09-09T02:31:05;5.3;;;2.9;;
15500;SDS011;7852;52.228;5.990;2022-09-09T02:32:06;4.8;;;2.7;;
15500;SDS011;7852;52.228;5.990;2022-09-09T02:33:05;4;;;2.8;;
15500;SDS011;7852;52.228;5.990;2022-09-09T02:34:05;3.6;;;2.6;;
15500;SDS011;7852;52.228;5.990;2022-09-09T02:35:06;4.6;;;2.4;;
15500;SDS011;7852;52.228;5.990;2022-09-09T02:36:05;6;;;3.1;;
15500;SDS011;7852;52.228;5.990;2022-09-09T02:40:06;4;;;2.5;;
15500;SDS011;7852;52.228;5.990;2022-09-09T02:41:06;4.8;;;2.7;;
15500;SDS011;7852;52.228;5.990;2022-09-09T02:44:05;3.7;;;2.3;;
15500;SDS011;7852;52.228;5.990;2022-09-09T02:45:05;3.8;;;2.5;;
15500;SDS011;7852;52.228;5.990;2022-09-09T02:46:08;4.6;;;2.3;;
15500;SDS011;7852;52.228;5.990;2022-09-09T02:47:09;3.9;;;2.1;;
15500;SDS011;7852;52.228;5.990;2022-09-09T02:48:07;4.9;;;2.4;;
15500;SDS011;7852;52.228;5.990;2022-09-09T02:49:06;2.8;;;1.9;;
15500;SDS011;7852;52.228;5.990;2022-09-09T02:50:07;5.3;;;2.1;;
15500;SDS011;7852;52.228;5.990;2022-09-09T02:51:06;4.1;;;2;;
15500;SDS011;7852;52.228;5.990;2022-09-09T02:52:06;3.2;;;2.1;;
15500;SDS011;7852;52.228;5.990;2022-09-09T02:53:06;4;;;2;;
15500;SDS011;7852;52.228;5.990;2022-09-09T02:54:07;3.6;;;1.9;;
15500;SDS011;7852;52.228;5.990;2022-09-09T02:55:07;5.2;;;2.7;;
15500;SDS011;7852;52.228;5.990;2022-09-09T02:56:05;2.5;;;1.9;;
15500;SDS011;7852;52.228;5.990;2022-09-09T02:57:06;3.5;;;1.8;;
15500;SDS011;7852;52.228;5.990;2022-09-09T02:58:05;4.3;;;2.1;;
15500;SDS011;7852;52.228;5.990;2022-09-09T02:59:05;3.9;;;2.3;;
15500;SDS011;7852;52.228;5.990;2022-09-09T03:00:05;3.9;;;1.9;;
15500;SDS011;7852;52.228;5.990;2022-09-09T03:01:05;4.7;;;2.3;;
15500;SDS011;7852;52.228;5.990;2022-09-09T03:02:05;3.8;;;2.3;;
15500;SDS011;7852;52.228;5.990;2022-09-09T03:03:05;3.2;;;2;;
15500;SDS011;7852;52.228;5.990;2022-09-09T03:04:05;5.5;;;2.3;;
15500;SDS011;7852;52.228;5.990;2022-09-09T03:05:05;4.2;;;2.1;;
15500;SDS011;7852;52.228;5.990;2022-09-09T03:06:05;4.5;;;2.1;;
15500;SDS011;7852;52.228;5.990;2022-09-09T03:07:05;4.5;;;2.1;;
15500;SDS011;7852;52.228;5.990;2022-09-09T03:08:05;6.2;;;2.2;;
15500;SDS011;7852;52.228;5.990;2022-09-09T03:09:05;3.5;;;2.1;;
15500;SDS011;7852;52.228;5.990;2022-09-09T03:10:05;3.2;;;1.9;;
15500;SDS011;7852;52.228;5.990;2022-09-09T03:11:06;4.4;;;2.4;;
15500;SDS011;7852;52.228;5.990;2022-09-09T03:12:05;3.8;;;2.1;;
15500;SDS011;7852;52.228;5.990;2022-09-09T03:13:05;3.8;;;2.2;;
15500;SDS011;7852;52.228;5.990;2022-09-09T03:14:05;4.7;;;2.2;;
15500;SDS011;7852;52.228;5.990;2022-09-09T03:15:05;5.2;;;2.3;;
15500;SDS011;7852;52.228;5.990;2022-09-09T03:16:05;3.3;;;2.4;;
15500;SDS011;7852;52.228;5.990;2022-09-09T03:17:05;6.3;;;2.5;;
15500;SDS011;7852;52.228;5.990;2022-09-09T03:18:05;4.1;;;2.5;;
15500;SDS011;7852;52.228;5.990;2022-09-09T03:19:05;3.1;;;2.2;;
15500;SDS011;7852;52.228;5.990;2022-09-09T03:20:05;5;;;2.6;;
15500;SDS011;7852;52.228;5.990;2022-09-09T03:21:05;4.1;;;2.3;;
15500;SDS011;7852;52.228;5.990;2022-09-09T03:22:05;4.1;;;2.6;;
15500;SDS011;7852;52.228;5.990;2022-09-09T03:23:05;5.1;;;2.5;;
15500;SDS011;7852;52.228;5.990;2022-09-09T03:24:05;4.8;;;2.7;;
15500;SDS011;7852;52.228;5.990;2022-09-09T03:25:05;4.4;;;2.6;;
15500;SDS011;7852;52.228;5.990;2022-09-09T03:26:05;3.7;;;2.5;;
15500;SDS011;7852;52.228;5.990;2022-09-09T03:27:05;3.8;;;2.7;;
15500;SDS011;7852;52.228;5.990;2022-09-09T03:28:05;5.6;;;2.1;;
15500;SDS011;7852;52.228;5.990;2022-09-09T03:29:05;4.2;;;2.5;;
15500;SDS011;7852;52.228;5.990;2022-09-09T03:30:05;4.3;;;2.3;;
15500;SDS011;7852;52.228;5.990;2022-09-09T03:31:05;4.9;;;2.3;;
15500;SDS011;7852;52.228;5.990;2022-09-09T03:32:05;5;;;2.3;;
15500;SDS011;7852;52.228;5.990;2022-09-09T03:33:05;3.9;;;2.7;;
15500;SDS011;7852;52.228;5.990;2022-09-09T03:34:05;3.7;;;2.1;;
15500;SDS011;7852;52.228;5.990;2022-09-09T03:35:05;4.7;;;2.6;;
15500;SDS011;7852;52.228;5.990;2022-09-09T03:36:05;3.4;;;2.1;;
15500;SDS011;7852;52.228;5.990;2022-09-09T03:37:05;6.3;;;2.3;;
15500;SDS011;7852;52.228;5.990;2022-09-09T03:38:06;3.5;;;2.3;;
15500;SDS011;7852;52.228;5.990;2022-09-09T03:39:06;4.5;;;2.4;;
15500;SDS011;7852;52.228;5.990;2022-09-09T03:40:06;5.7;;;2.5;;
15500;SDS011;7852;52.228;5.990;2022-09-09T03:41:06;5.5;;;2.4;;
15500;SDS011;7852;52.228;5.990;2022-09-09T03:42:06;4.2;;;2.7;;
15500;SDS011;7852;52.228;5.990;2022-09-09T03:43:06;5.1;;;2.6;;
15500;SDS011;7852;52.228;5.990;2022-09-09T03:44:06;5.2;;;2.4;;
15500;SDS011;7852;52.228;5.990;2022-09-09T03:45:07;4.8;;;2.4;;
15500;SDS011;7852;52.228;5.990;2022-09-09T03:46:07;4.9;;;2.6;;
15500;SDS011;7852;52.228;5.990;2022-09-09T03:47:07;4.1;;;2.7;;
15500;SDS011;7852;52.228;5.990;2022-09-09T03:48:07;3.9;;;2.4;;
15500;SDS011;7852;52.228;5.990;2022-09-09T03:49:07;4;;;2.6;;
15500;SDS011;7852;52.228;5.990;2022-09-09T03:50:07;3.9;;;2.8;;
15500;SDS011;7852;52.228;5.990;2022-09-09T03:51:07;6;;;2.4;;
15500;SDS011;7852;52.228;5.990;2022-09-09T03:52:08;4.3;;;2.6;;
15500;SDS011;7852;52.228;5.990;2022-09-09T03:53:07;6.2;;;2.4;;
15500;SDS011;7852;52.228;5.990;2022-09-09T03:54:07;6.1;;;2.7;;
15500;SDS011;7852;52.228;5.990;2022-09-09T03:55:07;5.9;;;2.5;;
15500;SDS011;7852;52.228;5.990;2022-09-09T03:56:07;6.1;;;2.8;;
15500;SDS011;7852;52.228;5.990;2022-09-09T03:57:07;6.6;;;2.6;;
15500;SDS011;7852;52.228;5.990;2022-09-09T03:58:07;4.5;;;2.6;;
15500;SDS011;7852;52.228;5.990;2022-09-09T03:59:07;6.5;;;2.8;;
15500;SDS011;7852;52.228;5.990;2022-09-09T04:00:08;6.8;;;3;;
15500;SDS011;7852;52.228;5.990;2022-09-09T04:01:08;4.8;;;2.7;;
15500;SDS011;7852;52.228;5.990;2022-09-09T04:02:07;5.6;;;2.8;;
15500;SDS011;7852;52.228;5.990;2022-09-09T04:03:07;4.1;;;2.8;;
15500;SDS011;7852;52.228;5.990;2022-09-09T04:04:07;5.7;;;2.8;;
15500;SDS011;7852;52.228;5.990;2022-09-09T04:05:07;4;;;2.8;;
15500;SDS011;7852;52.228;5.990;2022-09-09T04:06:08;4.6;;;2.5;;
15500;SDS011;7852;52.228;5.990;2022-09-09T04:07:07;4.7;;;2.8;;
15500;SDS011;7852;52.228;5.990;2022-09-09T04:08:07;4;;;2.6;;
15500;SDS011;7852;52.228;5.990;2022-09-09T04:09:07;3.9;;;2.5;;
15500;SDS011;7852;52.228;5.990;2022-09-09T04:10:07;6.4;;;2.9;;
15500;SDS011;7852;52.228;5.990;2022-09-09T04:11:07;4.3;;;2.7;;
15500;SDS011;7852;52.228;5.990;2022-09-09T04:12:07;5.1;;;2.7;;
15500;SDS011;7852;52.228;5.990;2022-09-09T04:13:08;8.6;;;3.1;;
15500;SDS011;7852;52.228;5.990;2022-09-09T04:14:08;5.4;;;2.9;;
15500;SDS011;7852;52.228;5.990;2022-09-09T04:15:08;5.1;;;2.9;;
15500;SDS011;7852;52.228;5.990;2022-09-09T04:16:09;4.1;;;2.6;;
15500;SDS011;7852;52.228;5.990;2022-09-09T04:17:08;5.4;;;2.7;;
15500;SDS011;7852;52.228;5.990;2022-09-09T04:18:08;7.1;;;2.8;;
15500;SDS011;7852;52.228;5.990;2022-09-09T04:19:08;4.8;;;2.8;;
15500;SDS011;7852;52.228;5.990;2022-09-09T04:20:08;4.9;;;2.9;;
15500;SDS011;7852;52.228;5.990;2022-09-09T04:21:08;5;;;3;;
15500;SDS011;7852;52.228;5.990;2022-09-09T04:22:08;5.5;;;2.7;;
15500;SDS011;7852;52.228;5.990;2022-09-09T04:23:08;7.4;;;3;;
15500;SDS011;7852;52.228;5.990;2022-09-09T04:24:08;4.5;;;2.7;;
15500;SDS011;7852;52.228;5.990;2022-09-09T04:25:08;7.9;;;3.1;;
15500;SDS011;7852;52.228;5.990;2022-09-09T04:26:08;4.6;;;2.9;;
15500;SDS011;7852;52.228;5.990;2022-09-09T04:27:08;4.3;;;3.2;;
15500;SDS011;7852;52.228;5.990;2022-09-09T04:28:08;4.7;;;2.9;;
15500;SDS011;7852;52.228;5.990;2022-09-09T04:29:08;5.6;;;3.1;;
15500;SDS011;7852;52.228;5.990;2022-09-09T04:30:08;6.8;;;3;;
15500;SDS011;7852;52.228;5.990;2022-09-09T04:31:09;5;;;2.9;;
15500;SDS011;7852;52.228;5.990;2022-09-09T04:32:08;4.6;;;2.6;;
15500;SDS011;7852;52.228;5.990;2022-09-09T04:33:08;6.5;;;2.8;;
15500;SDS011;7852;52.228;5.990;2022-09-09T04:34:08;5.3;;;2.8;;
15500;SDS011;7852;52.228;5.990;2022-09-09T04:35:08;6.6;;;3.1;;
15500;SDS011;7852;52.228;5.990;2022-09-09T04:36:08;7.2;;;3;;
15500;SDS011;7852;52.228;5.990;2022-09-09T04:37:08;4.8;;;2.7;;
15500;SDS011;7852;52.228;5.990;2022-09-09T04:38:08;5.4;;;3;;
15500;SDS011;7852;52.228;5.990;2022-09-09T04:39:08;7.2;;;3.1;;
15500;SDS011;7852;52.228;5.990;2022-09-09T04:40:08;5.4;;;3.2;;
15500;SDS011;7852;52.228;5.990;2022-09-09T04:41:08;4.9;;;3.1;;
15500;SDS011;7852;52.228;5.990;2022-09-09T04:42:08;6.8;;;3.8;;
15500;SDS011;7852;52.228;5.990;2022-09-09T04:43:08;5.1;;;3.2;;
15500;SDS011;7852;52.228;5.990;2022-09-09T04:44:08;7.4;;;3.4;;
15500;SDS011;7852;52.228;5.990;2022-09-09T04:45:08;5.7;;;3.4;;
15500;SDS011;7852;52.228;5.990;2022-09-09T04:46:08;5.8;;;3.4;;
15500;SDS011;7852;52.228;5.990;2022-09-09T04:47:08;4.8;;;3.7;;
15500;SDS011;7852;52.228;5.990;2022-09-09T04:48:08;5.7;;;3.3;;
15500;SDS011;7852;52.228;5.990;2022-09-09T04:49:08;6.7;;;3.3;;
15500;SDS011;7852;52.228;5.990;2022-09-09T04:50:08;7.5;;;3.8;;
15500;SDS011;7852;52.228;5.990;2022-09-09T04:51:08;6.1;;;3.4;;
15500;SDS011;7852;52.228;5.990;2022-09-09T04:52:08;5.4;;;3.2;;
15500;SDS011;7852;52.228;5.990;2022-09-09T04:53:08;6.3;;;3.4;;
15500;SDS011;7852;52.228;5.990;2022-09-09T04:54:08;6.7;;;4;;
15500;SDS011;7852;52.228;5.990;2022-09-09T04:55:08;8.2;;;3.4;;
15500;SDS011;7852;52.228;5.990;2022-09-09T04:56:09;5.4;;;3.6;;
15500;SDS011;7852;52.228;5.990;2022-09-09T04:57:10;5.9;;;3.8;;
15500;SDS011;7852;52.228;5.990;2022-09-09T04:58:08;6.7;;;3.7;;
15500;SDS011;7852;52.228;5.990;2022-09-09T04:59:08;5.6;;;3.7;;
15500;SDS011;7852;52.228;5.990;2022-09-09T05:00:08;4.3;;;3.5;;
15500;SDS011;7852;52.228;5.990;2022-09-09T05:01:08;5.1;;;3.6;;
15500;SDS011;7852;52.228;5.990;2022-09-09T05:02:08;8;;;4;;
15500;SDS011;7852;52.228;5.990;2022-09-09T05:03:08;5.6;;;3.7;;
15500;SDS011;7852;52.228;5.990;2022-09-09T05:04:08;8.1;;;4.4;;
15500;SDS011;7852;52.228;5.990;2022-09-09T05:05:08;6.5;;;4;;
15500;SDS011;7852;52.228;5.990;2022-09-09T05:06:08;7.5;;;3.7;;
15500;SDS011;7852;52.228;5.990;2022-09-09T05:07:08;6.4;;;3.4;;
15500;SDS011;7852;52.228;5.990;2022-09-09T05:08:08;6.4;;;3.8;;
15500;SDS011;7852;52.228;5.990;2022-09-09T05:09:08;7.5;;;3.8;;
15500;SDS011;7852;52.228;5.990;2022-09-09T05:10:08;5.7;;;3.6;;
15500;SDS011;7852;52.228;5.990;2022-09-09T05:11:16;6.9;;;3.9;;
15500;SDS011;7852;52.228;5.990;2022-09-09T05:12:08;7.5;;;3.9;;
15500;SDS011;7852;52.228;5.990;2022-09-09T05:13:08;7;;;4;;
15500;SDS011;7852;52.228;5.990;2022-09-09T05:14:08;6.5;;;4;;
15500;SDS011;7852;52.228;5.990;2022-09-09T05:15:08;6.5;;;3.4;;
15500;SDS011;7852;52.228;5.990;2022-09-09T05:16:08;7.4;;;3.8;;
15500;SDS011;7852;52.228;5.990;2022-09-09T05:17:08;7.5;;;3.6;;
15500;SDS011;7852;52.228;5.990;2022-09-09T05:18:08;5.5;;;3.7;;
15500;SDS011;7852;52.228;5.990;2022-09-09T05:19:08;7.3;;;3.9;;
15500;SDS011;7852;52.228;5.990;2022-09-09T05:20:08;6.4;;;3.9;;
15500;SDS011;7852;52.228;5.990;2022-09-09T05:21:08;10;;;3.7;;
15500;SDS011;7852;52.228;5.990;2022-09-09T05:22:08;5.7;;;3.4;;
15500;SDS011;7852;52.228;5.990;2022-09-09T05:23:08;5.5;;;3.2;;
15500;SDS011;7852;52.228;5.990;2022-09-09T05:24:08;7.5;;;3.9;;
15500;SDS011;7852;52.228;5.990;2022-09-09T05:25:08;6.8;;;3.8;;
15500;SDS011;7852;52.228;5.990;2022-09-09T05:26:09;6.2;;;3.9;;
15500;SDS011;7852;52.228;5.990;2022-09-09T05:27:08;5.6;;;3.9;;
15500;SDS011;7852;52.228;5.990;2022-09-09T05:28:08;6;;;3.9;;
15500;SDS011;7852;52.228;5.990;2022-09-09T05:29:09;8.8;;;4;;
15500;SDS011;7852;52.228;5.990;2022-09-09T05:30:09;6.5;;;4.1;;
15500;SDS011;7852;52.228;5.990;2022-09-09T05:31:09;6.7;;;3.7;;
15500;SDS011;7852;52.228;5.990;2022-09-09T05:32:09;7.1;;;4.1;;
15500;SDS011;7852;52.228;5.990;2022-09-09T05:33:09;5.4;;;3.9;;
15500;SDS011;7852;52.228;5.990;2022-09-09T05:34:09;5.6;;;3.9;;
15500;SDS011;7852;52.228;5.990;2022-09-09T05:35:09;6.3;;;3.4;;
15500;SDS011;7852;52.228;5.990;2022-09-09T05:36:09;5.5;;;3.9;;
15500;SDS011;7852;52.228;5.990;2022-09-09T05:37:10;5.3;;;3.7;;
15500;SDS011;7852;52.228;5.990;2022-09-09T05:38:10;6.8;;;3.8;;
15500;SDS011;7852;52.228;5.990;2022-09-09T05:39:11;6.7;;;3.9;;
15500;SDS011;7852;52.228;5.990;2022-09-09T05:40:11;6;;;3.8;;
15500;SDS011;7852;52.228;5.990;2022-09-09T05:41:11;7.2;;;3.7;;
15500;SDS011;7852;52.228;5.990;2022-09-09T05:42:11;7.6;;;3.6;;
15500;SDS011;7852;52.228;5.990;2022-09-09T05:43:11;6.2;;;4.1;;
15500;SDS011;7852;52.228;5.990;2022-09-09T05:44:11;6;;;4.2;;
15500;SDS011;7852;52.228;5.990;2022-09-09T05:45:11;8.1;;;4.3;;
15500;SDS011;7852;52.228;5.990;2022-09-09T05:46:12;7.1;;;4.1;;
15500;SDS011;7852;52.228;5.990;2022-09-09T05:47:11;7.3;;;3.6;;
15500;SDS011;7852;52.228;5.990;2022-09-09T05:48:11;7.3;;;3.8;;
15500;SDS011;7852;52.228;5.990;2022-09-09T05:49:11;6.3;;;3.5;;
15500;SDS011;7852;52.228;5.990;2022-09-09T05:50:11;6.4;;;4;;
15500;SDS011;7852;52.228;5.990;2022-09-09T05:51:14;7.6;;;4.3;;
15500;SDS011;7852;52.228;5.990;2022-09-09T05:52:12;8.8;;;4.4;;
15500;SDS011;7852;52.228;5.990;2022-09-09T05:53:12;8.1;;;4.2;;
15500;SDS011;7852;52.228;5.990;2022-09-09T05:54:12;8.4;;;4.3;;
15500;SDS011;7852;52.228;5.990;2022-09-09T05:55:12;7.3;;;4.1;;
15500;SDS011;7852;52.228;5.990;2022-09-09T05:56:15;7.4;;;3.9;;
15500;SDS011;7852;52.228;5.990;2022-09-09T05:57:15;7.7;;;4;;
15500;SDS011;7852;52.228;5.990;2022-09-09T05:58:16;6.8;;;4.1;;
15500;SDS011;7852;52.228;5.990;2022-09-09T05:59:15;7.8;;;4;;
15500;SDS011;7852;52.228;5.990;2022-09-09T06:00:15;8.5;;;4;;
15500;SDS011;7852;52.228;5.990;2022-09-09T06:01:16;8.2;;;4;;
15500;SDS011;7852;52.228;5.990;2022-09-09T06:02:15;10.8;;;4.3;;
15500;SDS011;7852;52.228;5.990;2022-09-09T06:03:16;8;;;4.1;;
15500;SDS011;7852;52.228;5.990;2022-09-09T06:04:15;8.2;;;4.2;;
15500;SDS011;7852;52.228;5.990;2022-09-09T06:05:15;7.8;;;4.2;;
15500;SDS011;7852;52.228;5.990;2022-09-09T06:06:15;9.4;;;4.1;;
15500;SDS011;7852;52.228;5.990;2022-09-09T06:07:15;6;;;4.4;;
15500;SDS011;7852;52.228;5.990;2022-09-09T06:08:15;7.5;;;4;;
15500;SDS011;7852;52.228;5.990;2022-09-09T06:09:15;7.4;;;4.2;;
15500;SDS011;7852;52.228;5.990;2022-09-09T06:10:15;7.1;;;4.3;;
15500;SDS011;7852;52.228;5.990;2022-09-09T06:11:16;7.6;;;4.3;;
15500;SDS011;7852;52.228;5.990;2022-09-09T06:12:15;7.3;;;4.4;;
15500;SDS011;7852;52.228;5.990;2022-09-09T06:13:15;7.8;;;4.4;;
15500;SDS011;7852;52.228;5.990;2022-09-09T06:14:15;9.3;;;4.3;;
15500;SDS011;7852;52.228;5.990;2022-09-09T06:15:15;7.8;;;4.3;;
15500;SDS011;7852;52.228;5.990;2022-09-09T06:16:16;8;;;4.2;;
15500;SDS011;7852;52.228;5.990;2022-09-09T06:17:16;6.7;;;3.6;;
15500;SDS011;7852;52.228;5.990;2022-09-09T06:18:15;9;;;4.1;;
15500;SDS011;7852;52.228;5.990;2022-09-09T06:19:15;6.9;;;4.2;;
15500;SDS011;7852;52.228;5.990;2022-09-09T06:20:15;8.5;;;4;;
15500;SDS011;7852;52.228;5.990;2022-09-09T06:21:15;7.8;;;4.5;;
15500;SDS011;7852;52.228;5.990;2022-09-09T06:22:16;9.4;;;4.5;;
15500;SDS011;7852;52.228;5.990;2022-09-09T06:23:15;7;;;4.4;;
15500;SDS011;7852;52.228;5.990;2022-09-09T06:24:15;8.2;;;4.3;;
15500;SDS011;7852;52.228;5.990;2022-09-09T06:25:16;8.2;;;4.1;;
15500;SDS011;7852;52.228;5.990;2022-09-09T06:26:16;6.2;;;4.5;;
15500;SDS011;7852;52.228;5.990;2022-09-09T06:27:15;6.3;;;4;;
15500;SDS011;7852;52.228;5.990;2022-09-09T06:28:15;7.4;;;4.4;;